Time;durP1;ratioP1;P1;durP2;ratioP2;P2;SDS_P1;SDS_P2;PMS_P1;PMS_P2;Temp;Humidity;BMP_temperature;BMP_pressure;BME280_temperature;BME280_humidity;BME280_pressure;Samples;Min_cycle;Max_cycle;Signal;HPM_P1;HPM_P2
2021/05/07 00:00:06;;;;;;;418.63;243.00;;;;;;;;;;5031299;28;20040;-77
2021/05/07 00:02:32;;;;;;;432.98;264.80;;;;;;;;;;5032138;28;20032;-78
2021/05/07 00:04:58;;;;;;;420.35;253.80;;;;;;;;;;5032074;28;20017;-78
2021/05/07 00:07:24;;;;;;;419.95;257.05;;;;;;;;;;5048681;28;20025;-78
2021/05/07 00:09:50;;;;;;;413.92;244.98;;;;;;;;;;5043309;28;20031;-77
2021/05/07 00:12:16;;;;;;;415.17;243.57;;;;;;;;;;5015078;28;20037;-78
2021/05/07 00:14:43;;;;;;;417.10;246.38;;;;;;;;;;5032821;28;20029;-78
2021/05/07 00:17:10;;;;;;;415.67;244.93;;;;;;;;;;5032049;28;20630;-77
2021/05/07 00:19:36;;;;;;;413.75;243.75;;;;;;;;;;5044397;28;20022;-78
2021/05/07 00:22:02;;;;;;;414.20;244.60;;;;;;;;;;5033125;28;20483;-77
2021/05/07 00:24:28;;;;;;;415.73;245.02;;;;;;;;;;5032753;28;20934;-77
2021/05/07 00:26:56;;;;;;;413.48;241.23;;;;;;;;;;5029412;28;20124;-77
2021/05/07 00:29:22;;;;;;;413.52;235.48;;;;;;;;;;5032800;28;20025;-79
2021/05/07 00:31:48;;;;;;;414.98;240.90;;;;;;;;;;5033015;28;20039;-79
2021/05/07 00:34:14;;;;;;;417.38;246.75;;;;;;;;;;5031879;28;20495;-78
2021/05/07 00:36:39;;;;;;;420.40;246.02;;;;;;;;;;5029974;28;20550;-78
2021/05/07 00:39:06;;;;;;;425.38;248.00;;;;;;;;;;5042163;28;20028;-78
2021/05/07 00:41:31;;;;;;;424.63;248.90;;;;;;;;;;5049554;28;20025;-78
2021/05/07 00:43:57;;;;;;;421.42;249.30;;;;;;;;;;5032078;28;20025;-79
2021/05/07 00:46:23;;;;;;;416.80;244.80;;;;;;;;;;5031672;28;20024;-78
2021/05/07 00:48:50;;;;;;;415.75;242.38;;;;;;;;;;5031721;28;20044;-78
2021/05/07 00:51:16;;;;;;;415.55;239.48;;;;;;;;;;5033397;28;20594;-78
2021/05/07 00:53:42;;;;;;;415.05;244.25;;;;;;;;;;5029829;28;20357;-78
2021/05/07 00:56:08;;;;;;;410.80;237.25;;;;;;;;;;5053958;28;20029;-79
2021/05/07 00:58:34;;;;;;;413.80;235.15;;;;;;;;;;5045357;28;20034;-78
2021/05/07 01:01:00;;;;;;;414.08;238.57;;;;;;;;;;5036638;28;20471;-78
2021/05/07 01:03:26;;;;;;;412.52;238.07;;;;;;;;;;5030282;28;20028;-79
2021/05/07 01:05:52;;;;;;;417.00;242.90;;;;;;;;;;5054195;28;20400;-78
2021/05/07 01:08:20;;;;;;;421.63;244.98;;;;;;;;;;5037126;28;20071;-78
2021/05/07 01:10:47;;;;;;;423.13;248.60;;;;;;;;;;5037689;28;20484;-78
2021/05/07 01:13:13;;;;;;;416.70;235.80;;;;;;;;;;5055702;28;20099;-78
2021/05/07 01:15:40;;;;;;;422.35;239.93;;;;;;;;;;5034248;28;20025;-79
2021/05/07 01:18:06;;;;;;;427.52;243.50;;;;;;;;;;5033802;28;20025;-78
2021/05/07 01:20:32;;;;;;;419.55;245.25;;;;;;;;;;5030978;28;20021;-78
2021/05/07 01:22:59;;;;;;;418.60;236.60;;;;;;;;;;5036781;28;21960;-79
2021/05/07 01:25:27;;;;;;;418.17;238.40;;;;;;;;;;5031454;28;20061;-78
2021/05/07 01:27:54;;;;;;;426.40;242.70;;;;;;;;;;5033919;28;20033;-78
2021/05/07 01:30:22;;;;;;;418.52;239.13;;;;;;;;;;5036502;28;20025;-78
2021/05/07 01:32:48;;;;;;;419.42;233.75;;;;;;;;;;5035730;28;20033;-79
2021/05/07 01:35:15;;;;;;;419.95;240.10;;;;;;;;;;5029719;28;20045;-79
2021/05/07 01:37:45;;;;;;;417.33;233.00;;;;;;;;;;5054127;28;20095;-79
2021/05/07 01:40:15;;;;;;;419.03;239.23;;;;;;;;;;5035475;28;20116;-78
2021/05/07 01:42:41;;;;;;;423.67;242.15;;;;;;;;;;5036251;28;20691;-78
2021/05/07 01:45:08;;;;;;;424.67;240.73;;;;;;;;;;5030656;28;20024;-79
2021/05/07 01:47:35;;;;;;;427.63;240.85;;;;;;;;;;5035067;28;20059;-78
2021/05/07 01:50:01;;;;;;;429.38;248.18;;;;;;;;;;5034858;28;20033;-79
2021/05/07 01:52:27;;;;;;;429.88;245.65;;;;;;;;;;5038912;28;20032;-80
2021/05/07 01:54:53;;;;;;;430.85;241.05;;;;;;;;;;5035111;28;20036;-79
2021/05/07 01:57:19;;;;;;;426.05;236.40;;;;;;;;;;5034513;28;20060;-79
2021/05/07 01:59:45;;;;;;;422.98;238.32;;;;;;;;;;5035935;28;20110;-79
2021/05/07 02:02:11;;;;;;;428.67;243.07;;;;;;;;;;5036419;28;20029;-79
2021/05/07 02:04:37;;;;;;;427.83;239.65;;;;;;;;;;5033605;28;20040;-79
2021/05/07 02:07:03;;;;;;;429.40;237.55;;;;;;;;;;5050988;28;20060;-79
2021/05/07 02:09:29;;;;;;;436.50;242.15;;;;;;;;;;5053735;28;20025;-79
2021/05/07 02:11:55;;;;;;;444.17;242.45;;;;;;;;;;5036239;28;20039;-79
2021/05/07 02:14:21;;;;;;;461.33;242.68;;;;;;;;;;5053983;28;20055;-79
2021/05/07 02:16:47;;;;;;;467.02;240.73;;;;;;;;;;5034527;28;20111;-79
2021/05/07 02:19:13;;;;;;;483.38;255.05;;;;;;;;;;5033851;28;20439;-78
2021/05/07 02:21:39;;;;;;;479.80;244.68;;;;;;;;;;5053618;28;20025;-78
2021/05/07 02:24:05;;;;;;;464.83;241.35;;;;;;;;;;5035615;28;20025;-79
2021/05/07 02:26:31;;;;;;;441.45;242.85;;;;;;;;;;5032764;28;20032;-79
2021/05/07 02:28:57;;;;;;;434.55;243.05;;;;;;;;;;5036045;28;20025;-79
2021/05/07 02:31:23;;;;;;;430.08;242.43;;;;;;;;;;5054090;28;20103;-79
2021/05/07 02:33:49;;;;;;;424.58;230.68;;;;;;;;;;5053643;28;20044;-79
2021/05/07 02:36:15;;;;;;;430.25;238.93;;;;;;;;;;5035525;28;20449;-79
2021/05/07 02:38:41;;;;;;;423.45;239.85;;;;;;;;;;5053915;28;20120;-79
2021/05/07 02:41:08;;;;;;;424.85;240.02;;;;;;;;;;5052909;28;20017;-79
2021/05/07 02:43:34;;;;;;;414.85;230.52;;;;;;;;;;5035801;28;20028;-79
2021/05/07 02:46:00;;;;;;;418.15;234.77;;;;;;;;;;5051282;28;20092;-79
2021/05/07 02:48:26;;;;;;;419.60;238.82;;;;;;;;;;5035292;28;20040;-79
2021/05/07 02:50:52;;;;;;;421.70;242.20;;;;;;;;;;5035954;28;20025;-79
2021/05/07 02:53:18;;;;;;;425.27;242.43;;;;;;;;;;5053661;28;20082;-78
2021/05/07 02:55:44;;;;;;;428.33;249.90;;;;;;;;;;5035318;28;20025;-78
2021/05/07 02:58:10;;;;;;;423.23;250.98;;;;;;;;;;5051952;28;20070;-79
2021/05/07 03:00:36;;;;;;;428.95;250.55;;;;;;;;;;5031886;28;20057;-78
2021/05/07 03:03:02;;;;;;;423.08;245.73;;;;;;;;;;5032950;28;20021;-78
2021/05/07 03:05:28;;;;;;;423.33;245.48;;;;;;;;;;5035216;28;20023;-79
2021/05/07 03:07:54;;;;;;;422.60;242.45;;;;;;;;;;5035235;28;20592;-79
2021/05/07 03:10:20;;;;;;;421.45;239.40;;;;;;;;;;5052984;28;20060;-78
2021/05/07 03:12:46;;;;;;;423.48;242.07;;;;;;;;;;5052827;28;20036;-78
2021/05/07 03:15:12;;;;;;;420.25;241.25;;;;;;;;;;5042667;28;20029;-78
2021/05/07 03:17:39;;;;;;;421.58;238.32;;;;;;;;;;5052753;28;20025;-78
2021/05/07 03:20:05;;;;;;;422.45;242.27;;;;;;;;;;5038121;28;20538;-79
2021/05/07 03:22:31;;;;;;;417.23;236.82;;;;;;;;;;5035303;28;20025;-79
2021/05/07 03:24:57;;;;;;;425.35;248.57;;;;;;;;;;5028129;28;20045;-79
2021/05/07 03:27:23;;;;;;;429.27;248.50;;;;;;;;;;5034187;28;20033;-79
2021/05/07 03:29:49;;;;;;;430.58;252.13;;;;;;;;;;5029476;28;20508;-78
2021/05/07 03:32:16;;;;;;;429.95;245.20;;;;;;;;;;5034428;28;20052;-78
2021/05/07 03:34:42;;;;;;;438.77;255.15;;;;;;;;;;5031564;28;20534;-79
2021/05/07 03:37:08;;;;;;;423.92;243.60;;;;;;;;;;5031292;28;20063;-78
2021/05/07 03:39:33;;;;;;;428.63;255.40;;;;;;;;;;5032102;28;20025;-78
2021/05/07 03:41:59;;;;;;;427.25;245.02;;;;;;;;;;5052832;28;20025;-78
2021/05/07 03:44:25;;;;;;;427.33;248.13;;;;;;;;;;5034986;28;20021;-79
2021/05/07 03:46:52;;;;;;;427.33;245.15;;;;;;;;;;5052071;28;20805;-78
2021/05/07 03:49:17;;;;;;;428.02;251.93;;;;;;;;;;5035425;28;20043;-78
2021/05/07 03:51:43;;;;;;;428.15;249.13;;;;;;;;;;5037547;28;20037;-78
2021/05/07 03:54:10;;;;;;;425.67;250.48;;;;;;;;;;5026863;28;20039;-78
2021/05/07 03:56:36;;;;;;;417.73;241.88;;;;;;;;;;5032780;28;20074;-79
2021/05/07 03:59:01;;;;;;;420.10;243.00;;;;;;;;;;5052442;28;20100;-79
2021/05/07 04:01:27;;;;;;;422.35;245.07;;;;;;;;;;5031371;28;20029;-78
2021/05/07 04:03:53;;;;;;;416.88;237.27;;;;;;;;;;5028080;28;20791;-79
2021/05/07 04:06:21;;;;;;;420.40;241.70;;;;;;;;;;5051048;28;20179;-79
2021/05/07 04:09:26;;;;;;;421.00;242.90;;;;;;;;;;5030842;28;20124;-78
2021/05/07 04:14:14;;;;;;;422.25;240.48;;;;;;;;;;5051467;28;20033;-80
2021/05/07 04:16:40;;;;;;;425.30;247.80;;;;;;;;;;5034023;28;20040;-78
2021/05/07 04:19:06;;;;;;;422.80;244.60;;;;;;;;;;5034327;28;20111;-78
2021/05/07 04:21:32;;;;;;;416.08;234.85;;;;;;;;;;5033880;28;20415;-78
2021/05/07 04:23:58;;;;;;;426.88;250.23;;;;;;;;;;5030503;28;20112;-79
2021/05/07 04:26:24;;;;;;;428.88;249.02;;;;;;;;;;5022514;28;20037;-79
2021/05/07 04:28:50;;;;;;;427.67;252.68;;;;;;;;;;5033328;28;20547;-79
2021/05/07 04:31:16;;;;;;;419.52;241.68;;;;;;;;;;5033643;28;20365;-79
2021/05/07 04:33:42;;;;;;;421.05;244.88;;;;;;;;;;5034211;28;20123;-81
2021/05/07 04:36:08;;;;;;;428.65;251.68;;;;;;;;;;5031663;28;20025;-79
2021/05/07 04:38:34;;;;;;;424.65;248.50;;;;;;;;;;5051145;28;20029;-79
2021/05/07 04:41:00;;;;;;;418.70;243.75;;;;;;;;;;5057157;28;20020;-80
2021/05/07 04:43:26;;;;;;;424.48;252.65;;;;;;;;;;5033589;28;20067;-80
2021/05/07 04:45:52;;;;;;;414.00;238.73;;;;;;;;;;5033129;28;20048;-80
2021/05/07 04:48:18;;;;;;;416.02;236.55;;;;;;;;;;5050470;28;20049;-79
2021/05/07 04:50:44;;;;;;;418.75;241.77;;;;;;;;;;5030801;28;20034;-79
2021/05/07 04:53:10;;;;;;;420.58;244.07;;;;;;;;;;5033673;28;20024;-79
2021/05/07 04:55:36;;;;;;;421.20;246.55;;;;;;;;;;5033780;28;20032;-79
2021/05/07 04:58:03;;;;;;;423.05;244.95;;;;;;;;;;5023813;28;20124;-80
2021/05/07 05:00:29;;;;;;;422.92;237.07;;;;;;;;;;5028077;28;20051;-79
2021/05/07 05:02:55;;;;;;;417.60;229.63;;;;;;;;;;5033550;28;20028;-78
2021/05/07 05:05:21;;;;;;;421.85;235.48;;;;;;;;;;5033696;28;20366;-78
2021/05/07 05:07:47;;;;;;;422.15;237.13;;;;;;;;;;5051296;28;20037;-78
2021/05/07 05:10:13;;;;;;;425.60;241.95;;;;;;;;;;5033918;28;20630;-78
2021/05/07 05:12:39;;;;;;;425.52;243.05;;;;;;;;;;5033251;28;20037;-78
2021/05/07 05:15:06;;;;;;;428.85;248.73;;;;;;;;;;5035614;28;20021;-79
2021/05/07 05:17:31;;;;;;;431.92;252.57;;;;;;;;;;5033533;28;20473;-79
2021/05/07 05:19:57;;;;;;;424.67;237.57;;;;;;;;;;5033620;28;20078;-78
2021/05/07 05:22:23;;;;;;;425.17;245.98;;;;;;;;;;5033476;28;20021;-79
2021/05/07 05:24:49;;;;;;;422.00;239.73;;;;;;;;;;5033402;28;20079;-77
2021/05/07 05:27:15;;;;;;;413.15;234.88;;;;;;;;;;5030964;28;20120;-77
2021/05/07 05:29:41;;;;;;;418.15;238.38;;;;;;;;;;5033940;28;20074;-77
2021/05/07 05:32:07;;;;;;;418.45;238.93;;;;;;;;;;5032757;28;20031;-79
2021/05/07 05:34:33;;;;;;;414.45;240.05;;;;;;;;;;5034090;28;20083;-81
2021/05/07 05:36:59;;;;;;;417.23;230.98;;;;;;;;;;5036631;28;20059;-80
2021/05/07 05:39:25;;;;;;;419.35;241.88;;;;;;;;;;5037391;28;20025;-79
2021/05/07 05:41:51;;;;;;;420.60;242.70;;;;;;;;;;5037730;28;20071;-79
2021/05/07 05:44:17;;;;;;;427.48;243.68;;;;;;;;;;5037626;28;20017;-78
2021/05/07 05:46:43;;;;;;;430.10;243.65;;;;;;;;;;5037589;28;20025;-78
2021/05/07 05:49:09;;;;;;;418.67;239.27;;;;;;;;;;5055432;28;20028;-78
2021/05/07 05:51:35;;;;;;;420.00;244.25;;;;;;;;;;5037489;28;20021;-78
2021/05/07 05:54:01;;;;;;;421.15;242.50;;;;;;;;;;5036807;28;20045;-76
2021/05/07 05:56:27;;;;;;;421.17;242.40;;;;;;;;;;5053984;28;20488;-78
2021/05/07 05:58:53;;;;;;;413.15;236.45;;;;;;;;;;5037295;28;20029;-77
2021/05/07 06:01:25;;;;;;;419.08;246.25;;;;;;;;;;5037487;28;20025;-76
2021/05/07 06:03:51;;;;;;;409.63;229.18;;;;;;;;;;5053810;28;20025;-78
2021/05/07 06:06:17;;;;;;;415.13;243.02;;;;;;;;;;5032400;28;20049;-78
2021/05/07 06:08:43;;;;;;;411.30;239.05;;;;;;;;;;5017821;28;20029;-76
2021/05/07 06:11:09;;;;;;;408.35;236.00;;;;;;;;;;5054053;28;20025;-77
2021/05/07 06:13:35;;;;;;;413.75;243.98;;;;;;;;;;5055143;28;20123;-77
2021/05/07 06:16:01;;;;;;;410.08;240.30;;;;;;;;;;5037262;28;20032;-79
2021/05/07 06:18:27;;;;;;;411.67;238.88;;;;;;;;;;5036316;28;20029;-76
2021/05/07 06:20:53;;;;;;;409.40;236.80;;;;;;;;;;5037078;28;20029;-75
2021/05/07 06:23:19;;;;;;;413.48;244.07;;;;;;;;;;5036866;28;20464;-77
2021/05/07 06:25:45;;;;;;;417.88;246.95;;;;;;;;;;5036942;28;20040;-79
2021/05/07 06:28:11;;;;;;;411.70;236.90;;;;;;;;;;5035703;28;20043;-75
2021/05/07 06:30:37;;;;;;;417.73;250.30;;;;;;;;;;5054718;28;20376;-75
2021/05/07 06:33:03;;;;;;;418.67;241.27;;;;;;;;;;5033899;28;20392;-77
2021/05/07 06:35:29;;;;;;;421.83;250.95;;;;;;;;;;5036313;28;20025;-77
2021/05/07 06:37:57;;;;;;;421.27;249.38;;;;;;;;;;5032846;28;20017;-76
2021/05/07 06:40:23;;;;;;;422.73;251.00;;;;;;;;;;5054359;28;20021;-76
2021/05/07 06:42:49;;;;;;;422.42;258.02;;;;;;;;;;5030467;28;20031;-75
2021/05/07 06:45:15;;;;;;;421.90;251.07;;;;;;;;;;5036407;28;20432;-76
2021/05/07 06:47:41;;;;;;;424.08;261.85;;;;;;;;;;5033548;28;20068;-76
2021/05/07 06:50:08;;;;;;;422.67;248.32;;;;;;;;;;5051215;28;20106;-76
2021/05/07 06:52:34;;;;;;;419.40;251.30;;;;;;;;;;5045467;28;20029;-76
2021/05/07 06:55:00;;;;;;;423.80;255.48;;;;;;;;;;5036313;28;20031;-77
2021/05/07 06:57:26;;;;;;;420.33;251.52;;;;;;;;;;5032385;28;20079;-78
2021/05/07 06:59:53;;;;;;;423.77;255.45;;;;;;;;;;5031833;28;20469;-79
2021/05/07 07:02:19;;;;;;;427.27;260.25;;;;;;;;;;5030920;28;20495;-77
2021/05/07 07:04:46;;;;;;;427.83;258.17;;;;;;;;;;5027234;28;20690;-80
2021/05/07 07:07:12;;;;;;;430.00;264.98;;;;;;;;;;5051152;28;20029;-79
2021/05/07 07:09:38;;;;;;;430.08;261.52;;;;;;;;;;5051320;28;20533;-79
2021/05/07 07:12:04;;;;;;;430.42;260.52;;;;;;;;;;5030432;28;20116;-77
2021/05/07 07:14:30;;;;;;;420.70;250.95;;;;;;;;;;5034238;28;20053;-75
2021/05/07 07:16:56;;;;;;;428.88;263.20;;;;;;;;;;5018364;28;20068;-77
2021/05/07 07:19:23;;;;;;;426.02;255.77;;;;;;;;;;5031075;28;20473;-77
2021/05/07 07:21:50;;;;;;;428.67;263.20;;;;;;;;;;5035583;28;20025;-78
2021/05/07 07:24:16;;;;;;;432.85;266.98;;;;;;;;;;5032929;28;20560;-78
2021/05/07 07:26:42;;;;;;;435.15;274.38;;;;;;;;;;5030777;28;20103;-77
2021/05/07 07:29:08;;;;;;;434.40;279.83;;;;;;;;;;5033293;28;20075;-78
2021/05/07 07:31:33;;;;;;;429.08;268.88;;;;;;;;;;5034300;28;20437;-78
2021/05/07 07:33:59;;;;;;;420.88;258.27;;;;;;;;;;5018735;28;20029;-79
2021/05/07 07:36:26;;;;;;;432.48;271.38;;;;;;;;;;5028499;28;20057;-78
2021/05/07 07:38:52;;;;;;;430.40;276.60;;;;;;;;;;5034490;28;20025;-79
2021/05/07 07:41:18;;;;;;;426.23;270.70;;;;;;;;;;5026642;28;20020;-77
2021/05/07 07:43:44;;;;;;;428.95;272.45;;;;;;;;;;5033364;28;20577;-78
2021/05/07 07:46:10;;;;;;;431.83;276.27;;;;;;;;;;5035403;28;20029;-86
2021/05/07 07:48:36;;;;;;;425.45;271.48;;;;;;;;;;5034637;28;20400;-79
2021/05/07 07:51:02;;;;;;;422.27;264.35;;;;;;;;;;5033805;28;20063;-78
2021/05/07 07:53:28;;;;;;;425.02;267.27;;;;;;;;;;5051893;28;20073;-78
2021/05/07 07:55:54;;;;;;;427.30;273.67;;;;;;;;;;5034930;28;20056;-79
2021/05/07 07:58:21;;;;;;;429.15;278.25;;;;;;;;;;5052263;28;20025;-78
2021/05/07 08:00:47;;;;;;;431.30;281.73;;;;;;;;;;5032623;28;20420;-88
2021/05/07 08:03:14;;;;;;;428.88;279.25;;;;;;;;;;5052977;28;20029;-77
2021/05/07 08:05:40;;;;;;;435.60;291.08;;;;;;;;;;5034696;28;20025;-80
2021/05/07 08:08:06;;;;;;;431.08;287.15;;;;;;;;;;5035096;28;20029;-79
2021/05/07 08:10:32;;;;;;;438.55;304.80;;;;;;;;;;5052981;28;20036;-79
2021/05/07 08:12:58;;;;;;;439.08;306.33;;;;;;;;;;5033150;28;20029;-77
2021/05/07 08:15:26;;;;;;;446.73;319.90;;;;;;;;;;5029559;28;20484;-79
2021/05/07 08:17:53;;;;;;;443.10;312.42;;;;;;;;;;5030907;28;20115;-79
2021/05/07 08:20:19;;;;;;;440.60;318.90;;;;;;;;;;5027665;28;20549;-79
2021/05/07 08:22:45;;;;;;;448.17;320.17;;;;;;;;;;5022637;28;20036;-79
2021/05/07 08:25:12;;;;;;;450.73;325.27;;;;;;;;;;5046763;28;20071;-78
2021/05/07 08:27:41;;;;;;;442.90;312.73;;;;;;;;;;5021437;28;20452;-81
2021/05/07 08:30:10;;;;;;;441.17;306.73;;;;;;;;;;5027405;28;20112;-78
2021/05/07 08:32:36;;;;;;;444.52;317.45;;;;;;;;;;5033861;28;20271;-78
2021/05/07 08:35:02;;;;;;;451.13;330.50;;;;;;;;;;5034122;28;20029;-83
2021/05/07 08:37:28;;;;;;;446.20;330.50;;;;;;;;;;5029064;28;20024;-86
2021/05/07 08:39:55;;;;;;;457.33;350.88;;;;;;;;;;5033627;28;20025;-79
2021/05/07 08:42:21;;;;;;;450.60;345.45;;;;;;;;;;5029969;28;20024;-81
2021/05/07 08:44:48;;;;;;;453.92;354.30;;;;;;;;;;5026824;28;20025;-78
2021/05/07 08:47:20;;;;;;;455.30;369.55;;;;;;;;;;5036099;28;20041;-78
2021/05/07 08:49:47;;;;;;;449.10;358.90;;;;;;;;;;5017275;28;20100;-78
2021/05/07 08:52:14;;;;;;;455.63;352.70;;;;;;;;;;5019197;28;20033;-84
2021/05/07 08:54:40;;;;;;;448.90;347.35;;;;;;;;;;5022171;28;20022;-80
2021/05/07 08:57:06;;;;;;;454.15;348.02;;;;;;;;;;5027068;28;20044;-81
2021/05/07 08:59:33;;;;;;;456.75;344.95;;;;;;;;;;5030079;28;20104;-82
2021/05/07 09:01:59;;;;;;;456.50;333.98;;;;;;;;;;5031967;28;20016;-78
2021/05/07 09:04:26;;;;;;;456.20;341.85;;;;;;;;;;5028988;28;20072;-77
2021/05/07 09:06:53;;;;;;;458.35;356.40;;;;;;;;;;5034284;28;20424;-79
2021/05/07 09:09:22;;;;;;;467.65;375.65;;;;;;;;;;5052677;28;20021;-81
2021/05/07 09:11:48;;;;;;;470.45;389.25;;;;;;;;;;5038928;28;20487;-78
2021/05/07 09:14:14;;;;;;;470.98;388.05;;;;;;;;;;5037914;28;20766;-78
2021/05/07 09:16:57;;;;;;;467.25;391.88;;;;;;;;;;5029489;28;20032;-79
2021/05/07 09:19:35;;;;;;;474.83;407.60;;;;;;;;;;5037805;28;20021;-79
2021/05/07 09:22:01;;;;;;;484.70;430.17;;;;;;;;;;5051407;28;20052;-81
2021/05/07 09:24:34;;;;;;;478.92;425.98;;;;;;;;;;5031266;28;20071;-83
2021/05/07 09:27:00;;;;;;;478.35;419.55;;;;;;;;;;5028677;28;20057;-82
2021/05/07 09:29:31;;;;;;;481.88;428.67;;;;;;;;;;5038384;28;20556;-80
2021/05/07 09:31:58;;;;;;;479.13;420.95;;;;;;;;;;5056047;28;20029;-83
2021/05/07 09:34:25;;;;;;;479.85;419.17;;;;;;;;;;5053270;28;20086;-83
2021/05/07 09:37:11;;;;;;;483.45;416.58;;;;;;;;;;5038374;28;20025;-79
2021/05/07 09:39:37;;;;;;;486.75;412.90;;;;;;;;;;5018539;28;20543;-79
2021/05/07 09:42:05;;;;;;;502.02;437.02;;;;;;;;;;5027783;28;20021;-78
2021/05/07 09:44:34;;;;;;;501.52;446.58;;;;;;;;;;5038277;28;20068;-87
2021/05/07 09:47:00;;;;;;;502.23;448.02;;;;;;;;;;5055890;28;20392;-79
2021/05/07 09:49:28;;;;;;;506.23;452.42;;;;;;;;;;5056132;28;20488;-87
2021/05/07 09:51:55;;;;;;;504.20;450.67;;;;;;;;;;5045441;28;20043;-83
2021/05/07 09:54:21;;;;;;;487.38;434.95;;;;;;;;;;5055884;28;20058;-82
2021/05/07 09:56:47;;;;;;;469.23;416.77;;;;;;;;;;5054633;28;20813;-83
2021/05/07 09:59:14;;;;;;;470.08;409.35;;;;;;;;;;5042797;28;20115;-81
2021/05/07 10:01:43;;;;;;;467.85;404.00;;;;;;;;;;5045427;28;20488;-82
2021/05/07 10:04:11;;;;;;;472.40;414.70;;;;;;;;;;5022558;28;20025;-83
2021/05/07 10:06:36;;;;;;;471.27;407.83;;;;;;;;;;5042462;28;20029;-81
2021/05/07 10:09:03;;;;;;;468.88;406.70;;;;;;;;;;5054416;28;20388;-81
2021/05/07 10:11:35;;;;;;;479.02;422.52;;;;;;;;;;5055495;28;20025;-79
2021/05/07 10:14:05;;;;;;;492.10;430.63;;;;;;;;;;5052028;28;20022;-81
2021/05/07 10:16:31;;;;;;;521.20;450.55;;;;;;;;;;5039125;28;20111;-82
2021/05/07 10:19:01;;;;;;;602.30;515.95;;;;;;;;;;5049696;28;20041;-84
2021/05/07 10:21:35;;;;;;;519.50;447.48;;;;;;;;;;5053497;28;20025;-80
2021/05/07 10:24:01;;;;;;;514.78;444.30;;;;;;;;;;5036292;28;20078;-82
2021/05/07 10:26:35;;;;;;;511.63;450.52;;;;;;;;;;5053061;28;20021;-81
2021/05/07 10:29:01;;;;;;;531.25;473.65;;;;;;;;;;5032401;28;20039;-81
2021/05/07 10:31:27;;;;;;;551.85;493.67;;;;;;;;;;5036522;28;20017;-81
2021/05/07 10:34:00;;;;;;;555.50;496.33;;;;;;;;;;5040205;28;20484;-79
2021/05/07 10:36:36;;;;;;;560.85;499.45;;;;;;;;;;5023210;28;20083;-80
2021/05/07 10:39:03;;;;;;;568.67;496.83;;;;;;;;;;5042823;28;20036;-79
2021/05/07 10:41:37;;;;;;;556.50;483.77;;;;;;;;;;5035287;28;20035;-84
2021/05/07 10:44:03;;;;;;;568.03;505.13;;;;;;;;;;5036525;28;20501;-87
2021/05/07 10:46:29;;;;;;;651.75;583.72;;;;;;;;;;5030271;28;20021;-80
2021/05/07 10:49:01;;;;;;;586.90;526.25;;;;;;;;;;5014039;28;20489;-79
2021/05/07 10:51:28;;;;;;;596.85;536.90;;;;;;;;;;5033801;28;20053;-77
2021/05/07 10:54:13;;;;;;;577.03;519.05;;;;;;;;;;5026280;28;20029;-81
2021/05/07 10:56:41;;;;;;;569.83;511.65;;;;;;;;;;5037184;28;20025;-78
2021/05/07 10:59:17;;;;;;;583.17;524.72;;;;;;;;;;5029106;28;20116;-80
2021/05/07 11:01:57;;;;;;;585.83;526.42;;;;;;;;;;5031211;28;20404;-84
2021/05/07 11:04:23;;;;;;;620.40;557.60;;;;;;;;;;5029614;28;20068;-86
2021/05/07 11:06:59;;;;;;;650.92;586.58;;;;;;;;;;5038648;28;20124;-81
2021/05/07 11:09:31;;;;;;;669.33;603.33;;;;;;;;;;5035161;28;20023;-80
2021/05/07 11:12:03;;;;;;;650.75;584.90;;;;;;;;;;5031940;28;20040;-79
2021/05/07 11:14:29;;;;;;;599.83;536.95;;;;;;;;;;5033551;28;20017;-82
2021/05/07 11:16:55;;;;;;;604.33;539.08;;;;;;;;;;5032225;28;20029;-81
2021/05/07 11:19:31;;;;;;;567.63;499.20;;;;;;;;;;5049121;28;20401;-79
2021/05/07 11:22:03;;;;;;;542.30;477.55;;;;;;;;;;5053604;28;20036;-78
2021/05/07 11:24:30;;;;;;;543.38;483.85;;;;;;;;;;5035672;28;20112;-79
2021/05/07 11:26:56;;;;;;;531.63;470.90;;;;;;;;;;5030337;28;20032;-82
2021/05/07 11:29:41;;;;;;;509.92;435.48;;;;;;;;;;5040705;28;20036;-81
2021/05/07 11:32:13;;;;;;;499.42;419.48;;;;;;;;;;5016217;28;20041;-84
2021/05/07 11:34:39;;;;;;;491.98;412.10;;;;;;;;;;5020104;28;20104;-80
2021/05/07 11:37:06;;;;;;;484.08;398.58;;;;;;;;;;5028271;28;20030;-76
2021/05/07 11:39:32;;;;;;;483.50;389.50;;;;;;;;;;5035909;28;20053;-86
2021/05/07 11:41:58;;;;;;;481.63;384.02;;;;;;;;;;5035712;28;20021;-78
2021/05/07 11:44:24;;;;;;;485.23;383.98;;;;;;;;;;5035957;28;20032;-83
2021/05/07 11:47:06;;;;;;;502.60;407.10;;;;;;;;;;5035693;28;20465;-79
2021/05/07 11:49:34;;;;;;;542.45;470.83;;;;;;;;;;5035872;28;20029;-81
2021/05/07 11:52:00;;;;;;;577.17;516.08;;;;;;;;;;5053812;28;20516;-81
2021/05/07 11:54:26;;;;;;;619.20;556.70;;;;;;;;;;5034736;28;20029;-79
2021/05/07 11:56:56;;;;;;;566.30;508.65;;;;;;;;;;5033475;28;20446;-83
2021/05/07 11:59:22;;;;;;;574.50;514.50;;;;;;;;;;5033956;28;20420;-82
2021/05/07 12:01:49;;;;;;;571.78;509.65;;;;;;;;;;5036013;28;20696;-81
2021/05/07 12:04:25;;;;;;;578.28;504.65;;;;;;;;;;5035871;28;20025;-80
2021/05/07 12:06:51;;;;;;;571.90;507.70;;;;;;;;;;5035806;28;20356;-81
2021/05/07 12:09:17;;;;;;;579.95;516.55;;;;;;;;;;5032099;28;20018;-85
2021/05/07 12:11:54;;;;;;;606.17;540.63;;;;;;;;;;5016221;28;20029;-85
2021/05/07 12:14:20;;;;;;;578.83;516.45;;;;;;;;;;5016304;28;20018;-82
2021/05/07 12:16:46;;;;;;;578.80;514.35;;;;;;;;;;5033569;28;20036;-85
2021/05/07 12:19:31;;;;;;;572.95;494.83;;;;;;;;;;5015575;28;20037;-80
2021/05/07 12:21:57;;;;;;;656.25;543.13;;;;;;;;;;5034809;28;20025;-78
2021/05/07 12:24:29;;;;;;;553.13;443.00;;;;;;;;;;5035160;28;20072;-83
2021/05/07 12:26:55;;;;;;;551.38;436.70;;;;;;;;;;5032605;28;20025;-83
2021/05/07 12:29:21;;;;;;;509.77;405.95;;;;;;;;;;5033437;28;20380;-78
2021/05/07 12:31:47;;;;;;;504.13;410.40;;;;;;;;;;5029811;28;20026;-81
2021/05/07 12:34:14;;;;;;;494.25;407.02;;;;;;;;;;5047486;28;20061;-78
2021/05/07 12:36:41;;;;;;;489.42;401.70;;;;;;;;;;5052872;28;20044;-80
2021/05/07 12:39:08;;;;;;;492.48;412.88;;;;;;;;;;5049768;28;20071;-84
2021/05/07 12:41:34;;;;;;;483.58;405.20;;;;;;;;;;5012520;28;20496;-80
2021/05/07 12:44:00;;;;;;;484.80;416.70;;;;;;;;;;5072048;28;20103;-83
2021/05/07 12:46:26;;;;;;;485.23;421.33;;;;;;;;;;5048830;28;20021;-82
2021/05/07 12:48:59;;;;;;;485.13;424.80;;;;;;;;;;5052727;28;20045;-86
2021/05/07 12:51:26;;;;;;;487.90;433.33;;;;;;;;;;5053030;28;20028;-82
2021/05/07 12:53:53;;;;;;;495.80;441.77;;;;;;;;;;5018270;28;20029;-84
2021/05/07 12:56:22;;;;;;;498.73;444.60;;;;;;;;;;5019773;28;20052;-79
2021/05/07 12:58:48;;;;;;;501.10;447.00;;;;;;;;;;5031759;28;20104;-79
2021/05/07 13:01:14;;;;;;;497.52;443.55;;;;;;;;;;5015154;28;20121;-81
2021/05/07 13:03:40;;;;;;;498.08;443.77;;;;;;;;;;5015474;28;20650;-83
2021/05/07 13:06:07;;;;;;;511.77;457.05;;;;;;;;;;5015003;28;20025;-81
2021/05/07 13:08:33;;;;;;;513.17;458.23;;;;;;;;;;5019394;28;20429;-88
2021/05/07 13:10:59;;;;;;;499.30;444.13;;;;;;;;;;5035030;28;20054;-80
2021/05/07 13:13:25;;;;;;;491.50;423.27;;;;;;;;;;5059152;28;20353;-80
2021/05/07 13:15:51;;;;;;;554.83;458.70;;;;;;;;;;5052198;28;20102;-84
2021/05/07 13:18:18;;;;;;;720.22;596.17;;;;;;;;;;5027297;28;20053;-81
2021/05/07 13:20:44;;;;;;;757.28;617.10;;;;;;;;;;5016050;28;20159;-81
2021/05/07 13:23:11;;;;;;;730.08;619.38;;;;;;;;;;5026968;28;20017;-79
2021/05/07 13:25:38;;;;;;;527.25;407.63;;;;;;;;;;5032937;28;20116;-81
2021/05/07 13:28:04;;;;;;;483.45;383.73;;;;;;;;;;5039066;28;20033;-80
2021/05/07 13:30:30;;;;;;;471.23;368.30;;;;;;;;;;5042148;28;20121;-81
2021/05/07 13:32:57;;;;;;;473.80;373.55;;;;;;;;;;5034356;28;20414;-86
2021/05/07 13:35:25;;;;;;;479.30;387.60;;;;;;;;;;5034074;28;20025;-79
2021/05/07 13:37:51;;;;;;;478.90;397.05;;;;;;;;;;5030582;28;20022;-83
2021/05/07 13:40:21;;;;;;;474.25;407.73;;;;;;;;;;5022630;28;20029;-83
2021/05/07 13:42:47;;;;;;;474.88;406.23;;;;;;;;;;5031915;28;20568;-89
2021/05/07 13:45:14;;;;;;;470.55;401.42;;;;;;;;;;5044174;28;20025;-79
2021/05/07 13:47:40;;;;;;;469.08;399.75;;;;;;;;;;5034242;28;20550;-86
2021/05/07 13:50:07;;;;;;;471.55;399.10;;;;;;;;;;5050937;28;20021;-79
2021/05/07 13:52:33;;;;;;;467.77;388.23;;;;;;;;;;5014585;28;20045;-86